sensor_id;sensor_type;location;lat;lon;timestamp;temperature;humidity
4056;DHT22;2043;52.184;8.690;2023-04-24T00:01:14;11.80;99.90
4056;DHT22;2043;52.184;8.690;2023-04-24T00:03:41;11.80;99.60
4056;DHT22;2043;52.184;8.690;2023-04-24T00:06:08;11.70;98.40
4056;DHT22;2043;52.184;8.690;2023-04-24T00:08:35;11.70;98.00
4056;DHT22;2043;52.184;8.690;2023-04-24T00:11:02;11.60;97.70
4056;DHT22;2043;52.184;8.690;2023-04-24T00:13:29;11.50;97.00
4056;DHT22;2043;52.184;8.690;2023-04-24T00:15:56;11.50;96.80
4056;DHT22;2043;52.184;8.690;2023-04-24T00:20:50;11.40;96.50
4056;DHT22;2043;52.184;8.690;2023-04-24T00:23:17;11.40;96.40
4056;DHT22;2043;52.184;8.690;2023-04-24T00:28:11;11.40;95.70
4056;DHT22;2043;52.184;8.690;2023-04-24T00:30:37;11.40;95.60
4056;DHT22;2043;52.184;8.690;2023-04-24T00:33:04;11.40;95.50
4056;DHT22;2043;52.184;8.690;2023-04-24T00:35:31;11.40;95.70
4056;DHT22;2043;52.184;8.690;2023-04-24T00:37:58;11.50;95.60
4056;DHT22;2043;52.184;8.690;2023-04-24T00:40:24;11.40;95.70
4056;DHT22;2043;52.184;8.690;2023-04-24T00:42:51;11.30;95.80
4056;DHT22;2043;52.184;8.690;2023-04-24T00:45:18;11.30;96.00
4056;DHT22;2043;52.184;8.690;2023-04-24T00:47:46;11.30;96.20
4056;DHT22;2043;52.184;8.690;2023-04-24T00:50:15;11.30;96.10
4056;DHT22;2043;52.184;8.690;2023-04-24T00:55:09;11.20;96.60
4056;DHT22;2043;52.184;8.690;2023-04-24T00:57:37;11.20;96.40
4056;DHT22;2043;52.184;8.690;2023-04-24T01:00:06;11.20;96.40
4056;DHT22;2043;52.184;8.690;2023-04-24T01:02:39;11.20;96.80
4056;DHT22;2043;52.184;8.690;2023-04-24T01:05:07;11.10;97.10
4056;DHT22;2043;52.184;8.690;2023-04-24T01:07:34;11.10;97.30
4056;DHT22;2043;52.184;8.690;2023-04-24T01:10:02;10.90;97.60
4056;DHT22;2043;52.184;8.690;2023-04-24T01:12:29;10.90;97.60
4056;DHT22;2043;52.184;8.690;2023-04-24T01:14:56;10.90;98.00
4056;DHT22;2043;52.184;8.690;2023-04-24T01:17:23;10.90;97.00
4056;DHT22;2043;52.184;8.690;2023-04-24T01:19:50;10.90;97.00
4056;DHT22;2043;52.184;8.690;2023-04-24T01:22:20;11.00;96.70
4056;DHT22;2043;52.184;8.690;2023-04-24T01:24:47;11.00;96.80
4056;DHT22;2043;52.184;8.690;2023-04-24T01:27:14;11.10;96.40
4056;DHT22;2043;52.184;8.690;2023-04-24T01:29:41;11.10;96.20
4056;DHT22;2043;52.184;8.690;2023-04-24T01:32:08;11.10;96.40
4056;DHT22;2043;52.184;8.690;2023-04-24T01:34:35;11.20;96.10
4056;DHT22;2043;52.184;8.690;2023-04-24T01:37:02;11.20;95.90
4056;DHT22;2043;52.184;8.690;2023-04-24T01:39:29;11.10;96.40
4056;DHT22;2043;52.184;8.690;2023-04-24T01:41:56;11.10;96.50
4056;DHT22;2043;52.184;8.690;2023-04-24T01:44:23;11.10;96.80
4056;DHT22;2043;52.184;8.690;2023-04-24T01:46:50;11.00;96.80
4056;DHT22;2043;52.184;8.690;2023-04-24T01:49:17;11.00;97.10
4056;DHT22;2043;52.184;8.690;2023-04-24T01:51:44;11.00;97.20
4056;DHT22;2043;52.184;8.690;2023-04-24T01:54:12;11.00;97.30
4056;DHT22;2043;52.184;8.690;2023-04-24T01:56:42;10.90;97.70
4056;DHT22;2043;52.184;8.690;2023-04-24T01:59:11;10.90;97.70
4056;DHT22;2043;52.184;8.690;2023-04-24T02:01:38;11.00;98.00
4056;DHT22;2043;52.184;8.690;2023-04-24T02:04:07;10.90;98.00
4056;DHT22;2043;52.184;8.690;2023-04-24T02:06:34;10.90;98.30
4056;DHT22;2043;52.184;8.690;2023-04-24T02:09:02;10.90;98.60
4056;DHT22;2043;52.184;8.690;2023-04-24T02:11:29;10.90;99.00
4056;DHT22;2043;52.184;8.690;2023-04-24T02:13:56;10.80;99.40
4056;DHT22;2043;52.184;8.690;2023-04-24T02:16:23;10.80;99.80
4056;DHT22;2043;52.184;8.690;2023-04-24T02:18:50;10.80;99.90
4056;DHT22;2043;52.184;8.690;2023-04-24T02:21:17;10.70;99.90
4056;DHT22;2043;52.184;8.690;2023-04-24T02:23:44;10.80;99.90
4056;DHT22;2043;52.184;8.690;2023-04-24T02:26:11;10.70;99.90
4056;DHT22;2043;52.184;8.690;2023-04-24T02:28:37;10.60;99.90
4056;DHT22;2043;52.184;8.690;2023-04-24T02:31:04;10.50;99.90
4056;DHT22;2043;52.184;8.690;2023-04-24T02:33:32;10.50;99.90
4056;DHT22;2043;52.184;8.690;2023-04-24T02:35:59;10.50;99.90
4056;DHT22;2043;52.184;8.690;2023-04-24T02:38:26;10.50;99.90
4056;DHT22;2043;52.184;8.690;2023-04-24T02:40:52;10.50;99.90
4056;DHT22;2043;52.184;8.690;2023-04-24T02:43:19;10.40;99.80
4056;DHT22;2043;52.184;8.690;2023-04-24T02:45:46;10.50;99.40
4056;DHT22;2043;52.184;8.690;2023-04-24T02:50:40;10.40;99.60
4056;DHT22;2043;52.184;8.690;2023-04-24T02:53:07;10.30;99.90
4056;DHT22;2043;52.184;8.690;2023-04-24T02:55:34;10.30;99.90
4056;DHT22;2043;52.184;8.690;2023-04-24T02:58:01;10.30;99.90
4056;DHT22;2043;52.184;8.690;2023-04-24T03:02:55;10.20;99.80
4056;DHT22;2043;52.184;8.690;2023-04-24T03:05:22;10.20;99.80
4056;DHT22;2043;52.184;8.690;2023-04-24T03:07:48;10.20;99.60
4056;DHT22;2043;52.184;8.690;2023-04-24T03:10:16;10.20;99.60
4056;DHT22;2043;52.184;8.690;2023-04-24T03:12:42;10.20;99.50
4056;DHT22;2043;52.184;8.690;2023-04-24T03:15:09;10.20;99.60
4056;DHT22;2043;52.184;8.690;2023-04-24T03:17:36;10.10;99.80
4056;DHT22;2043;52.184;8.690;2023-04-24T03:20:03;10.10;99.20
4056;DHT22;2043;52.184;8.690;2023-04-24T03:22:32;10.20;98.30
4056;DHT22;2043;52.184;8.690;2023-04-24T03:25:00;10.20;98.50
4056;DHT22;2043;52.184;8.690;2023-04-24T03:27:27;10.30;97.90
4056;DHT22;2043;52.184;8.690;2023-04-24T03:29:54;10.30;97.50
4056;DHT22;2043;52.184;8.690;2023-04-24T03:32:22;10.40;97.40
4056;DHT22;2043;52.184;8.690;2023-04-24T03:34:49;10.40;97.20
4056;DHT22;2043;52.184;8.690;2023-04-24T03:37:16;10.40;97.70
4056;DHT22;2043;52.184;8.690;2023-04-24T03:39:43;10.50;97.90
4056;DHT22;2043;52.184;8.690;2023-04-24T03:42:11;10.50;97.90
4056;DHT22;2043;52.184;8.690;2023-04-24T03:44:37;10.50;98.00
4056;DHT22;2043;52.184;8.690;2023-04-24T03:47:04;10.50;98.10
4056;DHT22;2043;52.184;8.690;2023-04-24T03:49:31;10.50;98.00
4056;DHT22;2043;52.184;8.690;2023-04-24T03:51:58;10.50;98.10
4056;DHT22;2043;52.184;8.690;2023-04-24T03:54:24;10.50;98.20
4056;DHT22;2043;52.184;8.690;2023-04-24T03:56:52;10.60;98.30
4056;DHT22;2043;52.184;8.690;2023-04-24T03:59:19;10.60;97.50
4056;DHT22;2043;52.184;8.690;2023-04-24T04:01:46;10.60;97.40
4056;DHT22;2043;52.184;8.690;2023-04-24T04:04:13;10.60;97.00
4056;DHT22;2043;52.184;8.690;2023-04-24T04:06:40;10.70;96.60
4056;DHT22;2043;52.184;8.690;2023-04-24T04:09:07;10.70;96.90
4056;DHT22;2043;52.184;8.690;2023-04-24T04:11:35;10.70;97.10
4056;DHT22;2043;52.184;8.690;2023-04-24T04:14:02;10.60;97.20
4056;DHT22;2043;52.184;8.690;2023-04-24T04:16:28;10.60;97.30
4056;DHT22;2043;52.184;8.690;2023-04-24T04:18:55;10.60;97.50
4056;DHT22;2043;52.184;8.690;2023-04-24T04:21:22;10.50;97.60
4056;DHT22;2043;52.184;8.690;2023-04-24T04:23:49;10.60;97.80
4056;DHT22;2043;52.184;8.690;2023-04-24T04:26:16;10.50;97.90
4056;DHT22;2043;52.184;8.690;2023-04-24T04:28:42;10.50;98.10
4056;DHT22;2043;52.184;8.690;2023-04-24T04:33:38;10.50;98.20
4056;DHT22;2043;52.184;8.690;2023-04-24T04:36:06;10.50;98.10
4056;DHT22;2043;52.184;8.690;2023-04-24T04:41:00;10.50;97.30
4056;DHT22;2043;52.184;8.690;2023-04-24T04:43:27;10.50;97.70
4056;DHT22;2043;52.184;8.690;2023-04-24T04:48:22;10.50;97.90
4056;DHT22;2043;52.184;8.690;2023-04-24T04:50:49;10.50;98.20
4056;DHT22;2043;52.184;8.690;2023-04-24T04:53:16;10.50;98.00
4056;DHT22;2043;52.184;8.690;2023-04-24T04:55:43;10.60;98.00
4056;DHT22;2043;52.184;8.690;2023-04-24T04:58:10;10.60;97.70
4056;DHT22;2043;52.184;8.690;2023-04-24T05:00:36;10.60;96.80
4056;DHT22;2043;52.184;8.690;2023-04-24T05:03:03;10.60;97.30
4056;DHT22;2043;52.184;8.690;2023-04-24T05:05:46;10.60;97.20
4056;DHT22;2043;52.184;8.690;2023-04-24T05:08:13;10.60;96.70
4056;DHT22;2043;52.184;8.690;2023-04-24T05:10:53;10.60;97.10
4056;DHT22;2043;52.184;8.690;2023-04-24T05:13:20;10.60;97.10
4056;DHT22;2043;52.184;8.690;2023-04-24T05:16:01;10.50;97.50
4056;DHT22;2043;52.184;8.690;2023-04-24T05:18:28;10.40;97.90
4056;DHT22;2043;52.184;8.690;2023-04-24T05:20:55;10.30;98.10
4056;DHT22;2043;52.184;8.690;2023-04-24T05:23:22;10.20;98.10
4056;DHT22;2043;52.184;8.690;2023-04-24T05:25:48;10.20;98.20
4056;DHT22;2043;52.184;8.690;2023-04-24T05:28:15;10.10;98.70
4056;DHT22;2043;52.184;8.690;2023-04-24T05:30:42;10.10;98.90
4056;DHT22;2043;52.184;8.690;2023-04-24T05:33:09;10.00;99.20
4056;DHT22;2043;52.184;8.690;2023-04-24T05:35:36;10.00;99.20
4056;DHT22;2043;52.184;8.690;2023-04-24T05:38:03;10.10;99.30
4056;DHT22;2043;52.184;8.690;2023-04-24T05:40:30;10.00;98.90
4056;DHT22;2043;52.184;8.690;2023-04-24T05:42:56;10.00;98.80
4056;DHT22;2043;52.184;8.690;2023-04-24T05:45:23;10.00;99.00
4056;DHT22;2043;52.184;8.690;2023-04-24T05:47:50;9.90;99.30
4056;DHT22;2043;52.184;8.690;2023-04-24T05:50:18;10.00;99.20
4056;DHT22;2043;52.184;8.690;2023-04-24T05:52:45;9.90;99.00
4056;DHT22;2043;52.184;8.690;2023-04-24T05:55:12;9.90;99.60
4056;DHT22;2043;52.184;8.690;2023-04-24T05:57:39;9.90;99.90
4056;DHT22;2043;52.184;8.690;2023-04-24T06:00:07;9.90;99.90
4056;DHT22;2043;52.184;8.690;2023-04-24T06:02:34;9.90;99.90
4056;DHT22;2043;52.184;8.690;2023-04-24T06:05:01;9.90;99.90
4056;DHT22;2043;52.184;8.690;2023-04-24T06:07:28;9.90;99.80
4056;DHT22;2043;52.184;8.690;2023-04-24T06:12:23;9.90;99.90
4056;DHT22;2043;52.184;8.690;2023-04-24T06:14:49;9.90;99.90
4056;DHT22;2043;52.184;8.690;2023-04-24T06:17:16;10.00;99.70
4056;DHT22;2043;52.184;8.690;2023-04-24T06:24:52;10.10;99.90
4056;DHT22;2043;52.184;8.690;2023-04-24T06:27:19;10.20;99.60
4056;DHT22;2043;52.184;8.690;2023-04-24T06:29:46;10.20;99.70
4056;DHT22;2043;52.184;8.690;2023-04-24T06:32:19;10.20;99.80
4056;DHT22;2043;52.184;8.690;2023-04-24T06:34:46;10.10;99.70
4056;DHT22;2043;52.184;8.690;2023-04-24T06:37:14;10.20;99.70
4056;DHT22;2043;52.184;8.690;2023-04-24T06:44:36;10.10;99.50
4056;DHT22;2043;52.184;8.690;2023-04-24T06:47:08;10.20;99.60
4056;DHT22;2043;52.184;8.690;2023-04-24T06:49:38;10.20;99.30
4056;DHT22;2043;52.184;8.690;2023-04-24T06:52:06;10.20;98.80
4056;DHT22;2043;52.184;8.690;2023-04-24T06:54:33;10.20;99.30
4056;DHT22;2043;52.184;8.690;2023-04-24T06:57:00;10.30;99.00
4056;DHT22;2043;52.184;8.690;2023-04-24T06:59:27;10.20;98.90
4056;DHT22;2043;52.184;8.690;2023-04-24T07:01:55;10.20;99.10
4056;DHT22;2043;52.184;8.690;2023-04-24T07:04:22;10.30;98.60
4056;DHT22;2043;52.184;8.690;2023-04-24T07:06:49;10.30;98.70
4056;DHT22;2043;52.184;8.690;2023-04-24T07:09:17;10.30;98.50
4056;DHT22;2043;52.184;8.690;2023-04-24T07:11:47;10.20;98.60
4056;DHT22;2043;52.184;8.690;2023-04-24T07:14:14;10.20;98.70
4056;DHT22;2043;52.184;8.690;2023-04-24T07:16:42;10.20;99.10
4056;DHT22;2043;52.184;8.690;2023-04-24T07:19:09;10.20;98.90
4056;DHT22;2043;52.184;8.690;2023-04-24T07:21:36;10.10;98.70
4056;DHT22;2043;52.184;8.690;2023-04-24T07:24:03;10.20;99.10
4056;DHT22;2043;52.184;8.690;2023-04-24T07:26:30;10.10;98.40
4056;DHT22;2043;52.184;8.690;2023-04-24T07:28:57;10.20;98.20
4056;DHT22;2043;52.184;8.690;2023-04-24T07:31:24;10.10;98.10
4056;DHT22;2043;52.184;8.690;2023-04-24T07:33:51;10.10;98.50
4056;DHT22;2043;52.184;8.690;2023-04-24T07:36:18;10.10;98.20
4056;DHT22;2043;52.184;8.690;2023-04-24T07:38:46;10.10;98.50
4056;DHT22;2043;52.184;8.690;2023-04-24T07:41:13;10.10;98.30
4056;DHT22;2043;52.184;8.690;2023-04-24T07:43:41;10.10;98.60
4056;DHT22;2043;52.184;8.690;2023-04-24T07:46:10;10.10;98.50
4056;DHT22;2043;52.184;8.690;2023-04-24T07:48:37;10.20;97.90
4056;DHT22;2043;52.184;8.690;2023-04-24T07:51:04;10.10;97.70
4056;DHT22;2043;52.184;8.690;2023-04-24T07:53:31;10.20;97.70
4056;DHT22;2043;52.184;8.690;2023-04-24T07:55:58;10.20;97.50
4056;DHT22;2043;52.184;8.690;2023-04-24T07:58:25;10.30;96.90
4056;DHT22;2043;52.184;8.690;2023-04-24T08:00:52;10.40;97.20
4056;DHT22;2043;52.184;8.690;2023-04-24T08:03:18;10.60;96.50
4056;DHT22;2043;52.184;8.690;2023-04-24T08:05:46;10.70;95.50
4056;DHT22;2043;52.184;8.690;2023-04-24T08:08:13;10.70;95.70
4056;DHT22;2043;52.184;8.690;2023-04-24T08:10:41;10.60;95.80
4056;DHT22;2043;52.184;8.690;2023-04-24T08:13:07;10.50;96.30
4056;DHT22;2043;52.184;8.690;2023-04-24T08:15:34;10.50;95.90
4056;DHT22;2043;52.184;8.690;2023-04-24T08:18:01;10.50;95.90
4056;DHT22;2043;52.184;8.690;2023-04-24T08:20:28;10.40;96.30
4056;DHT22;2043;52.184;8.690;2023-04-24T08:22:55;10.50;96.20
4056;DHT22;2043;52.184;8.690;2023-04-24T08:25:23;10.40;96.40
4056;DHT22;2043;52.184;8.690;2023-04-24T08:27:51;10.30;96.40
4056;DHT22;2043;52.184;8.690;2023-04-24T08:30:18;10.20;96.70
4056;DHT22;2043;52.184;8.690;2023-04-24T08:32:45;10.20;96.80
4056;DHT22;2043;52.184;8.690;2023-04-24T08:35:12;10.30;97.50
4056;DHT22;2043;52.184;8.690;2023-04-24T08:37:39;10.30;97.10
4056;DHT22;2043;52.184;8.690;2023-04-24T08:40:12;10.30;96.40
4056;DHT22;2043;52.184;8.690;2023-04-24T08:42:44;10.30;97.10
4056;DHT22;2043;52.184;8.690;2023-04-24T08:45:12;10.40;97.30
4056;DHT22;2043;52.184;8.690;2023-04-24T08:47:41;10.50;97.00
4056;DHT22;2043;52.184;8.690;2023-04-24T08:50:08;10.50;96.70
4056;DHT22;2043;52.184;8.690;2023-04-24T08:52:36;10.50;97.00
4056;DHT22;2043;52.184;8.690;2023-04-24T08:55:04;10.40;97.30
4056;DHT22;2043;52.184;8.690;2023-04-24T08:57:32;10.40;97.40
4056;DHT22;2043;52.184;8.690;2023-04-24T09:00:00;10.50;96.80
4056;DHT22;2043;52.184;8.690;2023-04-24T09:02:27;10.60;95.80
4056;DHT22;2043;52.184;8.690;2023-04-24T09:04:56;11.00;95.50
4056;DHT22;2043;52.184;8.690;2023-04-24T09:07:24;11.20;94.30
4056;DHT22;2043;52.184;8.690;2023-04-24T09:09:54;11.60;94.20
4056;DHT22;2043;52.184;8.690;2023-04-24T09:12:21;11.90;93.20
4056;DHT22;2043;52.184;8.690;2023-04-24T09:14:49;11.70;92.50
4056;DHT22;2043;52.184;8.690;2023-04-24T09:17:16;11.20;93.50
4056;DHT22;2043;52.184;8.690;2023-04-24T09:19:43;11.00;94.10
4056;DHT22;2043;52.184;8.690;2023-04-24T09:22:11;11.10;94.50
4056;DHT22;2043;52.184;8.690;2023-04-24T09:24:38;11.00;94.00
4056;DHT22;2043;52.184;8.690;2023-04-24T09:27:05;10.80;94.10
4056;DHT22;2043;52.184;8.690;2023-04-24T09:29:36;10.70;94.90
4056;DHT22;2043;52.184;8.690;2023-04-24T09:32:19;10.60;95.30
4056;DHT22;2043;52.184;8.690;2023-04-24T09:34:48;10.50;95.30
4056;DHT22;2043;52.184;8.690;2023-04-24T09:37:28;10.50;95.90
4056;DHT22;2043;52.184;8.690;2023-04-24T09:40:19;10.50;95.70
4056;DHT22;2043;52.184;8.690;2023-04-24T09:45:18;10.30;95.80
4056;DHT22;2043;52.184;8.690;2023-04-24T09:47:44;10.20;95.70
4056;DHT22;2043;52.184;8.690;2023-04-24T09:50:16;10.20;95.90
4056;DHT22;2043;52.184;8.690;2023-04-24T09:52:56;10.20;96.00
4056;DHT22;2043;52.184;8.690;2023-04-24T09:55:23;10.20;96.60
4056;DHT22;2043;52.184;8.690;2023-04-24T09:57:54;10.30;96.00
4056;DHT22;2043;52.184;8.690;2023-04-24T10:00:29;10.30;96.40
4056;DHT22;2043;52.184;8.690;2023-04-24T10:02:57;10.30;96.50
4056;DHT22;2043;52.184;8.690;2023-04-24T10:05:32;10.30;97.10
4056;DHT22;2043;52.184;8.690;2023-04-24T10:08:10;10.30;96.80
4056;DHT22;2043;52.184;8.690;2023-04-24T10:10:45;10.30;97.00
4056;DHT22;2043;52.184;8.690;2023-04-24T10:13:14;10.30;97.00
4056;DHT22;2043;52.184;8.690;2023-04-24T10:15:42;10.30;96.90
4056;DHT22;2043;52.184;8.690;2023-04-24T10:18:10;10.20;97.30
4056;DHT22;2043;52.184;8.690;2023-04-24T10:20:39;10.30;96.80
4056;DHT22;2043;52.184;8.690;2023-04-24T10:23:06;10.30;96.90
4056;DHT22;2043;52.184;8.690;2023-04-24T10:25:35;10.30;96.50
4056;DHT22;2043;52.184;8.690;2023-04-24T10:28:03;10.60;96.90
4056;DHT22;2043;52.184;8.690;2023-04-24T10:30:32;10.80;96.30
4056;DHT22;2043;52.184;8.690;2023-04-24T10:33:04;10.70;96.30
4056;DHT22;2043;52.184;8.690;2023-04-24T10:35:34;10.50;96.70
4056;DHT22;2043;52.184;8.690;2023-04-24T10:38:08;10.40;97.10
4056;DHT22;2043;52.184;8.690;2023-04-24T10:40:36;10.30;97.30
4056;DHT22;2043;52.184;8.690;2023-04-24T10:43:04;10.20;97.10
4056;DHT22;2043;52.184;8.690;2023-04-24T10:45:36;10.30;97.40
4056;DHT22;2043;52.184;8.690;2023-04-24T10:48:07;10.40;97.60
4056;DHT22;2043;52.184;8.690;2023-04-24T10:50:48;10.40;97.50
4056;DHT22;2043;52.184;8.690;2023-04-24T10:53:18;10.40;97.40
4056;DHT22;2043;52.184;8.690;2023-04-24T10:55:50;10.20;97.80
4056;DHT22;2043;52.184;8.690;2023-04-24T10:58:25;10.10;98.10
4056;DHT22;2043;52.184;8.690;2023-04-24T11:01:01;10.00;98.60
4056;DHT22;2043;52.184;8.690;2023-04-24T11:03:30;10.00;98.70
4056;DHT22;2043;52.184;8.690;2023-04-24T11:06:08;10.00;99.20
4056;DHT22;2043;52.184;8.690;2023-04-24T11:08:43;9.90;99.90
4056;DHT22;2043;52.184;8.690;2023-04-24T11:11:17;9.80;99.90
4056;DHT22;2043;52.184;8.690;2023-04-24T11:18:52;9.90;99.90
4056;DHT22;2043;52.184;8.690;2023-04-24T11:21:22;9.80;99.90
4056;DHT22;2043;52.184;8.690;2023-04-24T11:23:49;9.70;99.90
4056;DHT22;2043;52.184;8.690;2023-04-24T11:26:22;9.60;99.90
4056;DHT22;2043;52.184;8.690;2023-04-24T11:28:51;9.70;99.90
4056;DHT22;2043;52.184;8.690;2023-04-24T11:31:37;9.60;99.90
4056;DHT22;2043;52.184;8.690;2023-04-24T11:34:13;9.60;99.90
4056;DHT22;2043;52.184;8.690;2023-04-24T11:36:43;9.60;99.90
4056;DHT22;2043;52.184;8.690;2023-04-24T11:39:11;9.60;99.90
4056;DHT22;2043;52.184;8.690;2023-04-24T11:41:38;9.50;99.90
4056;DHT22;2043;52.184;8.690;2023-04-24T11:44:07;9.40;99.90
4056;DHT22;2043;52.184;8.690;2023-04-24T11:46:35;9.40;99.90
4056;DHT22;2043;52.184;8.690;2023-04-24T11:51:32;9.50;99.90
4056;DHT22;2043;52.184;8.690;2023-04-24T11:54:13;9.50;99.90
4056;DHT22;2043;52.184;8.690;2023-04-24T11:56:45;9.60;99.90
4056;DHT22;2043;52.184;8.690;2023-04-24T11:59:13;9.60;99.90
4056;DHT22;2043;52.184;8.690;2023-04-24T12:01:46;9.50;99.90
4056;DHT22;2043;52.184;8.690;2023-04-24T12:04:13;9.50;99.90
4056;DHT22;2043;52.184;8.690;2023-04-24T12:06:59;9.50;99.90
4056;DHT22;2043;52.184;8.690;2023-04-24T12:09:26;9.40;99.90
4056;DHT22;2043;52.184;8.690;2023-04-24T12:11:54;9.40;99.90
4056;DHT22;2043;52.184;8.690;2023-04-24T12:14:24;9.40;99.90
4056;DHT22;2043;52.184;8.690;2023-04-24T12:16:51;9.30;99.90
4056;DHT22;2043;52.184;8.690;2023-04-24T12:19:22;9.30;99.90
4056;DHT22;2043;52.184;8.690;2023-04-24T12:22:07;9.20;99.90
4056;DHT22;2043;52.184;8.690;2023-04-24T12:24:33;9.10;99.90
4056;DHT22;2043;52.184;8.690;2023-04-24T12:27:00;9.00;99.90
4056;DHT22;2043;52.184;8.690;2023-04-24T12:29:28;9.00;99.90
4056;DHT22;2043;52.184;8.690;2023-04-24T12:31:55;9.00;99.90
4056;DHT22;2043;52.184;8.690;2023-04-24T12:34:23;9.00;99.90
4056;DHT22;2043;52.184;8.690;2023-04-24T12:36:51;8.90;99.90
4056;DHT22;2043;52.184;8.690;2023-04-24T12:39:19;8.90;99.90
4056;DHT22;2043;52.184;8.690;2023-04-24T12:41:56;8.90;99.90
4056;DHT22;2043;52.184;8.690;2023-04-24T12:44:34;9.10;99.90
4056;DHT22;2043;52.184;8.690;2023-04-24T12:47:01;9.10;99.90
4056;DHT22;2043;52.184;8.690;2023-04-24T12:49:30;9.00;99.90
4056;DHT22;2043;52.184;8.690;2023-04-24T12:51:57;8.90;99.90
4056;DHT22;2043;52.184;8.690;2023-04-24T12:54:24;8.90;99.90
4056;DHT22;2043;52.184;8.690;2023-04-24T12:56:51;8.90;99.90
4056;DHT22;2043;52.184;8.690;2023-04-24T12:59:17;9.00;99.90
4056;DHT22;2043;52.184;8.690;2023-04-24T13:01:44;9.10;99.90
4056;DHT22;2043;52.184;8.690;2023-04-24T13:04:11;9.00;99.90
4056;DHT22;2043;52.184;8.690;2023-04-24T13:06:38;9.10;99.90
4056;DHT22;2043;52.184;8.690;2023-04-24T13:11:32;9.10;99.90
4056;DHT22;2043;52.184;8.690;2023-04-24T13:13:59;9.10;99.90
4056;DHT22;2043;52.184;8.690;2023-04-24T13:16:26;9.10;99.90
4056;DHT22;2043;52.184;8.690;2023-04-24T13:18:53;9.10;99.90
4056;DHT22;2043;52.184;8.690;2023-04-24T13:21:19;9.10;99.90
4056;DHT22;2043;52.184;8.690;2023-04-24T13:23:46;9.10;99.90
4056;DHT22;2043;52.184;8.690;2023-04-24T13:26:13;9.00;99.90
4056;DHT22;2043;52.184;8.690;2023-04-24T13:28:40;8.90;99.90
4056;DHT22;2043;52.184;8.690;2023-04-24T13:31:07;8.80;99.90
4056;DHT22;2043;52.184;8.690;2023-04-24T13:33:33;8.80;99.90
4056;DHT22;2043;52.184;8.690;2023-04-24T13:36:00;8.80;99.90
4056;DHT22;2043;52.184;8.690;2023-04-24T13:38:27;8.80;99.90
4056;DHT22;2043;52.184;8.690;2023-04-24T13:40:54;8.80;99.90
4056;DHT22;2043;52.184;8.690;2023-04-24T13:43:21;8.90;99.90
4056;DHT22;2043;52.184;8.690;2023-04-24T13:45:48;8.90;99.90
4056;DHT22;2043;52.184;8.690;2023-04-24T13:48:15;9.00;99.90
4056;DHT22;2043;52.184;8.690;2023-04-24T13:50:42;9.00;99.90
4056;DHT22;2043;52.184;8.690;2023-04-24T13:53:09;9.00;99.90
4056;DHT22;2043;52.184;8.690;2023-04-24T13:55:36;8.90;99.90
4056;DHT22;2043;52.184;8.690;2023-04-24T13:58:03;8.90;99.90
4056;DHT22;2043;52.184;8.690;2023-04-24T14:00:30;8.90;99.90
4056;DHT22;2043;52.184;8.690;2023-04-24T14:05:25;8.80;99.90
4056;DHT22;2043;52.184;8.690;2023-04-24T14:07:52;8.80;99.90
4056;DHT22;2043;52.184;8.690;2023-04-24T14:10:18;8.90;99.90
4056;DHT22;2043;52.184;8.690;2023-04-24T14:12:45;8.90;99.90
4056;DHT22;2043;52.184;8.690;2023-04-24T14:15:12;8.80;99.90
4056;DHT22;2043;52.184;8.690;2023-04-24T14:17:40;8.90;99.90
4056;DHT22;2043;52.184;8.690;2023-04-24T14:20:07;8.90;99.90
4056;DHT22;2043;52.184;8.690;2023-04-24T14:22:35;9.00;99.90
4056;DHT22;2043;52.184;8.690;2023-04-24T14:25:02;9.00;99.90
4056;DHT22;2043;52.184;8.690;2023-04-24T14:27:29;9.00;99.90
4056;DHT22;2043;52.184;8.690;2023-04-24T14:29:57;9.00;99.90
4056;DHT22;2043;52.184;8.690;2023-04-24T14:32:23;9.10;99.90
4056;DHT22;2043;52.184;8.690;2023-04-24T14:34:50;9.10;99.90
4056;DHT22;2043;52.184;8.690;2023-04-24T14:37:17;9.20;99.90
4056;DHT22;2043;52.184;8.690;2023-04-24T14:39:45;9.10;99.90
4056;DHT22;2043;52.184;8.690;2023-04-24T14:42:32;9.30;99.90
4056;DHT22;2043;52.184;8.690;2023-04-24T14:44:58;9.30;99.90
4056;DHT22;2043;52.184;8.690;2023-04-24T14:47:25;9.30;99.90
4056;DHT22;2043;52.184;8.690;2023-04-24T14:49:53;9.20;99.90
4056;DHT22;2043;52.184;8.690;2023-04-24T14:52:20;9.20;99.90
4056;DHT22;2043;52.184;8.690;2023-04-24T14:54:46;9.10;99.90
4056;DHT22;2043;52.184;8.690;2023-04-24T14:57:13;9.10;99.90
4056;DHT22;2043;52.184;8.690;2023-04-24T14:59:42;9.20;99.90
4056;DHT22;2043;52.184;8.690;2023-04-24T15:02:08;9.20;99.90
4056;DHT22;2043;52.184;8.690;2023-04-24T15:07:07;9.20;99.90
4056;DHT22;2043;52.184;8.690;2023-04-24T15:09:34;9.20;99.90
4056;DHT22;2043;52.184;8.690;2023-04-24T15:12:01;9.20;99.90
4056;DHT22;2043;52.184;8.690;2023-04-24T15:14:28;9.20;99.90
4056;DHT22;2043;52.184;8.690;2023-04-24T15:16:55;9.20;99.90
4056;DHT22;2043;52.184;8.690;2023-04-24T15:19:22;9.20;99.90
4056;DHT22;2043;52.184;8.690;2023-04-24T15:24:16;9.20;99.90
4056;DHT22;2043;52.184;8.690;2023-04-24T15:29:10;9.20;99.90
4056;DHT22;2043;52.184;8.690;2023-04-24T15:31:37;9.30;99.90
4056;DHT22;2043;52.184;8.690;2023-04-24T15:34:06;9.30;99.90
4056;DHT22;2043;52.184;8.690;2023-04-24T15:36:33;9.30;99.90
4056;DHT22;2043;52.184;8.690;2023-04-24T15:39:02;9.30;99.90
4056;DHT22;2043;52.184;8.690;2023-04-24T15:41:32;9.20;99.90
4056;DHT22;2043;52.184;8.690;2023-04-24T15:43:58;9.10;99.90
4056;DHT22;2043;52.184;8.690;2023-04-24T15:46:25;9.00;99.90
4056;DHT22;2043;52.184;8.690;2023-04-24T15:48:53;9.00;99.90
4056;DHT22;2043;52.184;8.690;2023-04-24T15:51:19;9.00;99.90
4056;DHT22;2043;52.184;8.690;2023-04-24T15:56:14;8.80;99.90
4056;DHT22;2043;52.184;8.690;2023-04-24T15:58:41;8.80;99.90
4056;DHT22;2043;52.184;8.690;2023-04-24T16:01:08;8.80;99.90
4056;DHT22;2043;52.184;8.690;2023-04-24T16:06:02;8.70;99.90
4056;DHT22;2043;52.184;8.690;2023-04-24T16:08:29;8.60;99.90
4056;DHT22;2043;52.184;8.690;2023-04-24T16:10:56;8.60;99.90
4056;DHT22;2043;52.184;8.690;2023-04-24T16:13:23;8.70;99.90
4056;DHT22;2043;52.184;8.690;2023-04-24T16:15:50;8.60;99.90
4056;DHT22;2043;52.184;8.690;2023-04-24T16:18:17;8.60;99.90
4056;DHT22;2043;52.184;8.690;2023-04-24T16:20:44;8.60;99.90
4056;DHT22;2043;52.184;8.690;2023-04-24T16:23:11;8.60;99.90
4056;DHT22;2043;52.184;8.690;2023-04-24T16:25:38;8.60;99.90
4056;DHT22;2043;52.184;8.690;2023-04-24T16:28:05;8.70;99.90
4056;DHT22;2043;52.184;8.690;2023-04-24T16:30:32;8.70;99.90
4056;DHT22;2043;52.184;8.690;2023-04-24T16:32:59;8.80;99.90
4056;DHT22;2043;52.184;8.690;2023-04-24T16:35:26;8.80;99.90
4056;DHT22;2043;52.184;8.690;2023-04-24T16:37:52;8.90;99.90
4056;DHT22;2043;52.184;8.690;2023-04-24T16:40:19;8.90;99.90
4056;DHT22;2043;52.184;8.690;2023-04-24T16:42:46;8.90;99.90
4056;DHT22;2043;52.184;8.690;2023-04-24T16:45:14;8.80;99.90
4056;DHT22;2043;52.184;8.690;2023-04-24T16:47:41;8.70;99.90
4056;DHT22;2043;52.184;8.690;2023-04-24T16:50:08;8.70;99.90
4056;DHT22;2043;52.184;8.690;2023-04-24T16:52:35;8.70;99.90
4056;DHT22;2043;52.184;8.690;2023-04-24T16:55:02;8.70;99.90
4056;DHT22;2043;52.184;8.690;2023-04-24T16:57:29;8.60;99.90
4056;DHT22;2043;52.184;8.690;2023-04-24T16:59:55;8.60;99.90
4056;DHT22;2043;52.184;8.690;2023-04-24T17:02:22;8.60;99.90
4056;DHT22;2043;52.184;8.690;2023-04-24T17:04:49;8.60;99.90
4056;DHT22;2043;52.184;8.690;2023-04-24T17:07:16;8.60;99.90
4056;DHT22;2043;52.184;8.690;2023-04-24T17:09:43;8.60;99.90
4056;DHT22;2043;52.184;8.690;2023-04-24T17:12:10;8.60;99.90